sensor_id;sensor_type;location;lat;lon;timestamp;temperature;humidity
55173;DHT22;41061;52.822;6.860;2023-10-31T00:01:51;11.80;99.90
55173;DHT22;41061;52.822;6.860;2023-10-31T00:04:17;11.80;99.90
55173;DHT22;41061;52.822;6.860;2023-10-31T00:06:43;11.80;99.90
55173;DHT22;41061;52.822;6.860;2023-10-31T00:09:08;11.80;99.90
55173;DHT22;41061;52.822;6.860;2023-10-31T00:11:36;11.80;99.90
55173;DHT22;41061;52.822;6.860;2023-10-31T00:14:02;11.80;99.90
55173;DHT22;41061;52.822;6.860;2023-10-31T00:16:28;11.80;99.90
55173;DHT22;41061;52.822;6.860;2023-10-31T00:18:53;11.80;99.90
55173;DHT22;41061;52.822;6.860;2023-10-31T00:21:19;11.80;99.90
55173;DHT22;41061;52.822;6.860;2023-10-31T00:23:48;11.80;99.90
55173;DHT22;41061;52.822;6.860;2023-10-31T00:26:15;11.80;99.90
55173;DHT22;41061;52.822;6.860;2023-10-31T00:28:41;11.80;99.90
55173;DHT22;41061;52.822;6.860;2023-10-31T00:31:07;11.80;99.90
55173;DHT22;41061;52.822;6.860;2023-10-31T00:33:34;11.80;99.90
55173;DHT22;41061;52.822;6.860;2023-10-31T00:36:00;11.80;99.90
55173;DHT22;41061;52.822;6.860;2023-10-31T00:38:26;11.80;99.90
55173;DHT22;41061;52.822;6.860;2023-10-31T00:40:52;11.80;99.90
55173;DHT22;41061;52.822;6.860;2023-10-31T00:43:17;11.90;99.90
55173;DHT22;41061;52.822;6.860;2023-10-31T00:45:43;11.90;99.90
55173;DHT22;41061;52.822;6.860;2023-10-31T00:48:09;11.80;99.90
55173;DHT22;41061;52.822;6.860;2023-10-31T00:50:34;11.90;99.90
55173;DHT22;41061;52.822;6.860;2023-10-31T00:53:00;11.90;99.90
55173;DHT22;41061;52.822;6.860;2023-10-31T00:55:26;11.90;99.90
55173;DHT22;41061;52.822;6.860;2023-10-31T00:57:51;11.90;99.90
55173;DHT22;41061;52.822;6.860;2023-10-31T01:00:17;11.90;99.90
55173;DHT22;41061;52.822;6.860;2023-10-31T01:02:43;11.90;99.90
55173;DHT22;41061;52.822;6.860;2023-10-31T01:05:10;11.90;99.90
55173;DHT22;41061;52.822;6.860;2023-10-31T01:07:36;12.00;99.90
55173;DHT22;41061;52.822;6.860;2023-10-31T01:10:03;12.00;99.90
55173;DHT22;41061;52.822;6.860;2023-10-31T01:12:30;11.90;99.90
55173;DHT22;41061;52.822;6.860;2023-10-31T01:14:56;11.90;99.90
55173;DHT22;41061;52.822;6.860;2023-10-31T01:17:22;11.90;99.90
55173;DHT22;41061;52.822;6.860;2023-10-31T01:19:48;11.90;99.90
55173;DHT22;41061;52.822;6.860;2023-10-31T01:22:13;11.90;99.90
55173;DHT22;41061;52.822;6.860;2023-10-31T01:24:39;11.90;99.90
55173;DHT22;41061;52.822;6.860;2023-10-31T01:27:05;12.00;99.90
55173;DHT22;41061;52.822;6.860;2023-10-31T01:29:31;11.90;99.90
55173;DHT22;41061;52.822;6.860;2023-10-31T01:31:56;12.00;99.90
55173;DHT22;41061;52.822;6.860;2023-10-31T01:34:23;11.90;99.90
55173;DHT22;41061;52.822;6.860;2023-10-31T01:36:48;11.90;99.90
55173;DHT22;41061;52.822;6.860;2023-10-31T01:39:14;12.00;99.90
55173;DHT22;41061;52.822;6.860;2023-10-31T01:41:42;12.00;99.90
55173;DHT22;41061;52.822;6.860;2023-10-31T01:44:09;12.00;99.90
55173;DHT22;41061;52.822;6.860;2023-10-31T01:46:35;12.00;99.90
55173;DHT22;41061;52.822;6.860;2023-10-31T01:49:01;12.00;99.90
55173;DHT22;41061;52.822;6.860;2023-10-31T01:51:28;12.00;99.90
55173;DHT22;41061;52.822;6.860;2023-10-31T01:53:55;11.80;99.90
55173;DHT22;41061;52.822;6.860;2023-10-31T02:13:26;11.00;99.90
55173;DHT22;41061;52.822;6.860;2023-10-31T02:15:52;11.10;99.90
55173;DHT22;41061;52.822;6.860;2023-10-31T02:18:18;11.10;99.90
55173;DHT22;41061;52.822;6.860;2023-10-31T02:20:43;11.00;99.90
55173;DHT22;41061;52.822;6.860;2023-10-31T02:23:09;11.00;99.90
55173;DHT22;41061;52.822;6.860;2023-10-31T02:25:35;10.90;99.90
55173;DHT22;41061;52.822;6.860;2023-10-31T02:28:01;10.80;99.90
55173;DHT22;41061;52.822;6.860;2023-10-31T02:30:27;10.80;99.90
55173;DHT22;41061;52.822;6.860;2023-10-31T02:32:53;10.80;99.90
55173;DHT22;41061;52.822;6.860;2023-10-31T02:35:19;10.70;99.90
55173;DHT22;41061;52.822;6.860;2023-10-31T02:37:46;10.70;99.90
55173;DHT22;41061;52.822;6.860;2023-10-31T02:40:12;10.70;99.90
55173;DHT22;41061;52.822;6.860;2023-10-31T02:42:38;10.60;99.90
55173;DHT22;41061;52.822;6.860;2023-10-31T02:45:04;10.50;99.90
55173;DHT22;41061;52.822;6.860;2023-10-31T02:47:30;10.50;99.90
55173;DHT22;41061;52.822;6.860;2023-10-31T02:49:55;10.50;99.90
55173;DHT22;41061;52.822;6.860;2023-10-31T02:52:21;10.50;99.90
55173;DHT22;41061;52.822;6.860;2023-10-31T02:54:47;10.50;99.90
55173;DHT22;41061;52.822;6.860;2023-10-31T02:57:13;10.40;99.90
55173;DHT22;41061;52.822;6.860;2023-10-31T02:59:38;10.50;99.90
55173;DHT22;41061;52.822;6.860;2023-10-31T03:02:04;10.50;99.90
55173;DHT22;41061;52.822;6.860;2023-10-31T03:04:30;10.50;99.90
55173;DHT22;41061;52.822;6.860;2023-10-31T03:06:55;10.50;99.90
55173;DHT22;41061;52.822;6.860;2023-10-31T03:09:21;10.50;99.90
55173;DHT22;41061;52.822;6.860;2023-10-31T03:11:47;10.50;99.90
55173;DHT22;41061;52.822;6.860;2023-10-31T03:14:12;10.50;99.90
55173;DHT22;41061;52.822;6.860;2023-10-31T03:16:38;10.50;99.90
55173;DHT22;41061;52.822;6.860;2023-10-31T03:19:05;10.50;99.90
55173;DHT22;41061;52.822;6.860;2023-10-31T03:21:30;10.40;99.90
55173;DHT22;41061;52.822;6.860;2023-10-31T03:23:56;10.40;99.90
55173;DHT22;41061;52.822;6.860;2023-10-31T03:26:22;10.40;99.90
55173;DHT22;41061;52.822;6.860;2023-10-31T03:28:48;10.40;99.90
55173;DHT22;41061;52.822;6.860;2023-10-31T03:31:14;10.30;99.90
55173;DHT22;41061;52.822;6.860;2023-10-31T03:33:41;10.40;99.90
55173;DHT22;41061;52.822;6.860;2023-10-31T03:36:07;10.40;99.90
55173;DHT22;41061;52.822;6.860;2023-10-31T03:38:34;10.40;99.90
55173;DHT22;41061;52.822;6.860;2023-10-31T03:41:00;10.50;99.90
55173;DHT22;41061;52.822;6.860;2023-10-31T03:43:26;10.50;99.90
55173;DHT22;41061;52.822;6.860;2023-10-31T03:45:52;10.50;99.90
55173;DHT22;41061;52.822;6.860;2023-10-31T03:48:18;10.50;99.90
55173;DHT22;41061;52.822;6.860;2023-10-31T03:50:44;10.50;99.90
55173;DHT22;41061;52.822;6.860;2023-10-31T03:53:10;10.50;99.90
55173;DHT22;41061;52.822;6.860;2023-10-31T03:55:36;10.50;99.90
55173;DHT22;41061;52.822;6.860;2023-10-31T03:58:02;10.40;99.90
55173;DHT22;41061;52.822;6.860;2023-10-31T04:00:28;10.50;99.90
55173;DHT22;41061;52.822;6.860;2023-10-31T04:02:53;10.50;99.90
55173;DHT22;41061;52.822;6.860;2023-10-31T04:05:19;10.40;99.90
55173;DHT22;41061;52.822;6.860;2023-10-31T04:07:48;10.50;99.90
55173;DHT22;41061;52.822;6.860;2023-10-31T04:10:13;10.50;99.90
55173;DHT22;41061;52.822;6.860;2023-10-31T04:12:39;10.40;99.90
55173;DHT22;41061;52.822;6.860;2023-10-31T04:15:05;10.40;99.90
55173;DHT22;41061;52.822;6.860;2023-10-31T04:17:31;10.40;99.90
55173;DHT22;41061;52.822;6.860;2023-10-31T04:19:57;10.40;99.90
55173;DHT22;41061;52.822;6.860;2023-10-31T04:22:23;10.50;99.90
55173;DHT22;41061;52.822;6.860;2023-10-31T04:24:49;10.50;99.90
55173;DHT22;41061;52.822;6.860;2023-10-31T04:27:15;10.40;99.90
55173;DHT22;41061;52.822;6.860;2023-10-31T04:29:41;10.40;99.90
55173;DHT22;41061;52.822;6.860;2023-10-31T04:32:07;10.50;99.90
55173;DHT22;41061;52.822;6.860;2023-10-31T04:34:33;10.40;99.90
55173;DHT22;41061;52.822;6.860;2023-10-31T04:36:58;10.50;99.90
55173;DHT22;41061;52.822;6.860;2023-10-31T04:39:24;10.50;99.90
55173;DHT22;41061;52.822;6.860;2023-10-31T04:41:50;10.50;99.90
55173;DHT22;41061;52.822;6.860;2023-10-31T04:44:16;10.50;99.90
55173;DHT22;41061;52.822;6.860;2023-10-31T04:46:42;10.50;99.90
55173;DHT22;41061;52.822;6.860;2023-10-31T04:49:08;10.50;99.90
55173;DHT22;41061;52.822;6.860;2023-10-31T04:51:35;10.40;99.90
55173;DHT22;41061;52.822;6.860;2023-10-31T04:54:01;10.50;99.90
55173;DHT22;41061;52.822;6.860;2023-10-31T04:56:26;10.50;99.90
55173;DHT22;41061;52.822;6.860;2023-10-31T04:58:52;10.50;99.90
55173;DHT22;41061;52.822;6.860;2023-10-31T05:01:18;10.50;99.90
55173;DHT22;41061;52.822;6.860;2023-10-31T05:03:44;10.60;99.90
55173;DHT22;41061;52.822;6.860;2023-10-31T05:06:10;10.60;99.90
55173;DHT22;41061;52.822;6.860;2023-10-31T05:08:36;10.60;99.90
55173;DHT22;41061;52.822;6.860;2023-10-31T05:11:02;10.60;99.90
55173;DHT22;41061;52.822;6.860;2023-10-31T05:13:28;10.50;99.90
55173;DHT22;41061;52.822;6.860;2023-10-31T05:15:53;10.60;99.90
55173;DHT22;41061;52.822;6.860;2023-10-31T05:18:19;10.60;99.90
55173;DHT22;41061;52.822;6.860;2023-10-31T05:20:45;10.60;99.90
55173;DHT22;41061;52.822;6.860;2023-10-31T05:23:14;10.60;99.90
55173;DHT22;41061;52.822;6.860;2023-10-31T05:25:39;10.50;99.90
55173;DHT22;41061;52.822;6.860;2023-10-31T05:28:05;10.50;99.90
55173;DHT22;41061;52.822;6.860;2023-10-31T05:30:31;10.50;99.90
55173;DHT22;41061;52.822;6.860;2023-10-31T05:32:57;10.50;99.90
55173;DHT22;41061;52.822;6.860;2023-10-31T05:35:23;10.40;99.90
55173;DHT22;41061;52.822;6.860;2023-10-31T05:37:49;10.50;99.90
55173;DHT22;41061;52.822;6.860;2023-10-31T05:40:15;10.50;99.90
55173;DHT22;41061;52.822;6.860;2023-10-31T05:42:41;10.50;99.90
55173;DHT22;41061;52.822;6.860;2023-10-31T05:45:08;10.40;99.90
55173;DHT22;41061;52.822;6.860;2023-10-31T05:47:33;10.40;99.90
55173;DHT22;41061;52.822;6.860;2023-10-31T05:49:59;10.40;99.90
55173;DHT22;41061;52.822;6.860;2023-10-31T05:52:29;10.40;99.90
55173;DHT22;41061;52.822;6.860;2023-10-31T05:54:55;10.40;99.90
55173;DHT22;41061;52.822;6.860;2023-10-31T05:57:21;10.40;99.90
55173;DHT22;41061;52.822;6.860;2023-10-31T05:59:47;10.40;99.90
55173;DHT22;41061;52.822;6.860;2023-10-31T06:02:14;10.40;99.90
55173;DHT22;41061;52.822;6.860;2023-10-31T06:04:40;10.40;99.90
55173;DHT22;41061;52.822;6.860;2023-10-31T06:07:06;10.40;99.90
55173;DHT22;41061;52.822;6.860;2023-10-31T06:09:32;10.40;99.90
55173;DHT22;41061;52.822;6.860;2023-10-31T06:11:59;10.50;99.90
55173;DHT22;41061;52.822;6.860;2023-10-31T06:14:25;10.40;99.90
55173;DHT22;41061;52.822;6.860;2023-10-31T06:16:51;10.40;99.90
55173;DHT22;41061;52.822;6.860;2023-10-31T06:19:17;10.50;99.90
55173;DHT22;41061;52.822;6.860;2023-10-31T06:21:43;10.40;99.90
55173;DHT22;41061;52.822;6.860;2023-10-31T06:24:09;10.40;99.90
55173;DHT22;41061;52.822;6.860;2023-10-31T06:26:35;10.40;99.90
55173;DHT22;41061;52.822;6.860;2023-10-31T06:29:01;10.40;99.90
55173;DHT22;41061;52.822;6.860;2023-10-31T06:31:27;10.40;99.90
55173;DHT22;41061;52.822;6.860;2023-10-31T06:33:52;10.40;99.90
55173;DHT22;41061;52.822;6.860;2023-10-31T06:36:18;10.50;99.90
55173;DHT22;41061;52.822;6.860;2023-10-31T06:38:44;10.40;99.90
55173;DHT22;41061;52.822;6.860;2023-10-31T06:41:10;10.40;99.90
55173;DHT22;41061;52.822;6.860;2023-10-31T06:43:35;10.40;99.90
55173;DHT22;41061;52.822;6.860;2023-10-31T06:46:02;10.40;99.90
55173;DHT22;41061;52.822;6.860;2023-10-31T06:48:29;10.40;99.90
55173;DHT22;41061;52.822;6.860;2023-10-31T06:50:55;10.40;99.90
55173;DHT22;41061;52.822;6.860;2023-10-31T06:53:21;10.40;99.90
55173;DHT22;41061;52.822;6.860;2023-10-31T06:55:46;10.40;99.90
55173;DHT22;41061;52.822;6.860;2023-10-31T06:58:12;10.40;99.90
55173;DHT22;41061;52.822;6.860;2023-10-31T07:00:38;10.40;99.90
55173;DHT22;41061;52.822;6.860;2023-10-31T07:03:04;10.40;99.90
55173;DHT22;41061;52.822;6.860;2023-10-31T07:05:35;10.40;99.90
55173;DHT22;41061;52.822;6.860;2023-10-31T07:08:00;10.50;99.90
55173;DHT22;41061;52.822;6.860;2023-10-31T07:10:26;10.40;99.90
55173;DHT22;41061;52.822;6.860;2023-10-31T07:12:52;10.40;99.90
55173;DHT22;41061;52.822;6.860;2023-10-31T07:15:17;10.50;99.90
55173;DHT22;41061;52.822;6.860;2023-10-31T07:17:43;10.50;99.90
55173;DHT22;41061;52.822;6.860;2023-10-31T07:20:09;10.50;99.90
55173;DHT22;41061;52.822;6.860;2023-10-31T07:22:35;10.50;99.90
55173;DHT22;41061;52.822;6.860;2023-10-31T07:25:01;10.50;99.90
55173;DHT22;41061;52.822;6.860;2023-10-31T07:27:29;10.50;99.90
55173;DHT22;41061;52.822;6.860;2023-10-31T07:29:55;10.60;99.90
55173;DHT22;41061;52.822;6.860;2023-10-31T07:32:21;10.50;99.90
55173;DHT22;41061;52.822;6.860;2023-10-31T07:34:46;10.60;99.90
55173;DHT22;41061;52.822;6.860;2023-10-31T07:37:12;10.50;99.90
55173;DHT22;41061;52.822;6.860;2023-10-31T07:39:38;10.60;99.90
55173;DHT22;41061;52.822;6.860;2023-10-31T07:42:04;10.60;99.90
55173;DHT22;41061;52.822;6.860;2023-10-31T07:44:29;10.60;99.90
55173;DHT22;41061;52.822;6.860;2023-10-31T07:46:55;10.60;99.90
55173;DHT22;41061;52.822;6.860;2023-10-31T07:49:21;10.60;99.90
55173;DHT22;41061;52.822;6.860;2023-10-31T07:51:48;10.60;99.90
55173;DHT22;41061;52.822;6.860;2023-10-31T07:54:14;10.70;99.90
55173;DHT22;41061;52.822;6.860;2023-10-31T07:56:41;10.70;99.90
55173;DHT22;41061;52.822;6.860;2023-10-31T07:59:07;10.70;99.90
55173;DHT22;41061;52.822;6.860;2023-10-31T08:01:36;10.70;99.90
55173;DHT22;41061;52.822;6.860;2023-10-31T08:04:02;10.80;99.90
55173;DHT22;41061;52.822;6.860;2023-10-31T08:06:28;10.90;99.90
55173;DHT22;41061;52.822;6.860;2023-10-31T08:08:54;10.90;99.90
55173;DHT22;41061;52.822;6.860;2023-10-31T08:11:20;10.90;99.90
55173;DHT22;41061;52.822;6.860;2023-10-31T08:13:46;10.90;99.90
55173;DHT22;41061;52.822;6.860;2023-10-31T08:16:17;11.00;99.90
55173;DHT22;41061;52.822;6.860;2023-10-31T08:18:44;11.10;99.90
55173;DHT22;41061;52.822;6.860;2023-10-31T08:21:11;11.20;99.90
55173;DHT22;41061;52.822;6.860;2023-10-31T08:23:37;11.20;99.90
55173;DHT22;41061;52.822;6.860;2023-10-31T08:26:03;11.20;99.90
55173;DHT22;41061;52.822;6.860;2023-10-31T08:28:29;11.30;99.90
55173;DHT22;41061;52.822;6.860;2023-10-31T08:30:56;11.30;99.90
55173;DHT22;41061;52.822;6.860;2023-10-31T08:33:22;11.30;99.90
55173;DHT22;41061;52.822;6.860;2023-10-31T08:35:48;11.30;99.90
55173;DHT22;41061;52.822;6.860;2023-10-31T08:38:14;11.30;99.90
55173;DHT22;41061;52.822;6.860;2023-10-31T08:40:40;11.30;99.90
55173;DHT22;41061;52.822;6.860;2023-10-31T08:43:06;11.40;99.90
55173;DHT22;41061;52.822;6.860;2023-10-31T08:45:32;11.40;99.90
55173;DHT22;41061;52.822;6.860;2023-10-31T08:47:59;11.50;99.90
55173;DHT22;41061;52.822;6.860;2023-10-31T08:50:25;11.60;99.90
55173;DHT22;41061;52.822;6.860;2023-10-31T08:52:50;11.60;99.90
55173;DHT22;41061;52.822;6.860;2023-10-31T08:55:16;11.70;99.90
55173;DHT22;41061;52.822;6.860;2023-10-31T08:57:42;11.80;99.90
55173;DHT22;41061;52.822;6.860;2023-10-31T09:00:08;11.80;99.90
55173;DHT22;41061;52.822;6.860;2023-10-31T09:02:34;11.80;99.90
55173;DHT22;41061;52.822;6.860;2023-10-31T09:04:59;11.90;99.90
55173;DHT22;41061;52.822;6.860;2023-10-31T09:07:25;11.90;99.90
55173;DHT22;41061;52.822;6.860;2023-10-31T09:09:51;11.90;99.90
55173;DHT22;41061;52.822;6.860;2023-10-31T09:12:16;11.90;99.90
55173;DHT22;41061;52.822;6.860;2023-10-31T09:14:42;11.90;99.90
55173;DHT22;41061;52.822;6.860;2023-10-31T09:17:08;11.90;99.90
55173;DHT22;41061;52.822;6.860;2023-10-31T09:19:34;11.90;99.90
55173;DHT22;41061;52.822;6.860;2023-10-31T09:21:59;11.90;99.90
55173;DHT22;41061;52.822;6.860;2023-10-31T09:24:25;11.90;99.90
55173;DHT22;41061;52.822;6.860;2023-10-31T09:26:51;11.90;99.90
55173;DHT22;41061;52.822;6.860;2023-10-31T09:29:16;12.00;99.90
55173;DHT22;41061;52.822;6.860;2023-10-31T09:31:42;12.00;99.90
55173;DHT22;41061;52.822;6.860;2023-10-31T09:34:08;12.00;99.90
55173;DHT22;41061;52.822;6.860;2023-10-31T10:33:06;12.10;99.90
55173;DHT22;41061;52.822;6.860;2023-10-31T10:35:32;12.10;99.90
55173;DHT22;41061;52.822;6.860;2023-10-31T10:38:00;12.10;99.90
55173;DHT22;41061;52.822;6.860;2023-10-31T10:40:26;12.10;99.90
55173;DHT22;41061;52.822;6.860;2023-10-31T10:42:55;12.00;99.90
55173;DHT22;41061;52.822;6.860;2023-10-31T10:45:25;12.10;99.90
55173;DHT22;41061;52.822;6.860;2023-10-31T10:47:52;12.10;99.90
55173;DHT22;41061;52.822;6.860;2023-10-31T10:50:21;12.10;99.90
55173;DHT22;41061;52.822;6.860;2023-10-31T10:53:17;12.10;99.90
55173;DHT22;41061;52.822;6.860;2023-10-31T10:55:48;12.10;99.90
55173;DHT22;41061;52.822;6.860;2023-10-31T10:58:33;12.00;99.90
55173;DHT22;41061;52.822;6.860;2023-10-31T11:01:00;12.00;99.90
55173;DHT22;41061;52.822;6.860;2023-10-31T11:03:29;11.90;99.90
55173;DHT22;41061;52.822;6.860;2023-10-31T11:05:55;11.80;99.90
55173;DHT22;41061;52.822;6.860;2023-10-31T11:08:23;11.70;99.90
55173;DHT22;41061;52.822;6.860;2023-10-31T11:10:50;11.70;99.90
55173;DHT22;41061;52.822;6.860;2023-10-31T11:13:16;11.70;99.90
55173;DHT22;41061;52.822;6.860;2023-10-31T11:15:42;11.70;99.90
55173;DHT22;41061;52.822;6.860;2023-10-31T11:18:09;11.70;99.90
55173;DHT22;41061;52.822;6.860;2023-10-31T11:20:36;11.70;99.90
55173;DHT22;41061;52.822;6.860;2023-10-31T11:23:03;11.70;99.90
55173;DHT22;41061;52.822;6.860;2023-10-31T11:25:32;11.80;99.90
55173;DHT22;41061;52.822;6.860;2023-10-31T11:28:12;11.80;99.90
55173;DHT22;41061;52.822;6.860;2023-10-31T11:30:38;12.00;99.90
55173;DHT22;41061;52.822;6.860;2023-10-31T11:33:05;12.00;99.90
55173;DHT22;41061;52.822;6.860;2023-10-31T11:35:33;12.00;99.90
55173;DHT22;41061;52.822;6.860;2023-10-31T11:40:29;11.90;99.90
55173;DHT22;41061;52.822;6.860;2023-10-31T11:43:02;11.90;99.90
55173;DHT22;41061;52.822;6.860;2023-10-31T11:48:03;11.90;99.90
55173;DHT22;41061;52.822;6.860;2023-10-31T11:50:33;11.90;99.90
55173;DHT22;41061;52.822;6.860;2023-10-31T11:55:25;11.90;99.90
55173;DHT22;41061;52.822;6.860;2023-10-31T11:57:51;12.00;99.90
55173;DHT22;41061;52.822;6.860;2023-10-31T12:00:23;12.00;99.90
55173;DHT22;41061;52.822;6.860;2023-10-31T12:03:02;12.00;99.90
55173;DHT22;41061;52.822;6.860;2023-10-31T12:05:28;12.00;99.90
55173;DHT22;41061;52.822;6.860;2023-10-31T12:07:55;12.00;99.90
55173;DHT22;41061;52.822;6.860;2023-10-31T12:10:25;12.00;99.90
55173;DHT22;41061;52.822;6.860;2023-10-31T12:13:01;12.00;99.90
55173;DHT22;41061;52.822;6.860;2023-10-31T12:15:26;12.00;99.90
55173;DHT22;41061;52.822;6.860;2023-10-31T12:17:57;11.90;99.90
55173;DHT22;41061;52.822;6.860;2023-10-31T12:20:22;11.80;99.90
55173;DHT22;41061;52.822;6.860;2023-10-31T12:23:02;11.80;99.90
55173;DHT22;41061;52.822;6.860;2023-10-31T12:25:28;11.80;99.90
55173;DHT22;41061;52.822;6.860;2023-10-31T12:27:53;11.80;99.90
55173;DHT22;41061;52.822;6.860;2023-10-31T12:30:22;11.80;99.90
55173;DHT22;41061;52.822;6.860;2023-10-31T12:32:55;11.80;99.90
55173;DHT22;41061;52.822;6.860;2023-10-31T12:35:23;11.70;99.90
55173;DHT22;41061;52.822;6.860;2023-10-31T12:37:49;11.70;99.90
55173;DHT22;41061;52.822;6.860;2023-10-31T12:40:20;11.70;99.90
55173;DHT22;41061;52.822;6.860;2023-10-31T12:42:47;11.60;99.90
55173;DHT22;41061;52.822;6.860;2023-10-31T12:45:14;11.60;99.90
55173;DHT22;41061;52.822;6.860;2023-10-31T12:47:40;11.60;99.90
55173;DHT22;41061;52.822;6.860;2023-10-31T12:50:13;11.60;99.90
55173;DHT22;41061;52.822;6.860;2023-10-31T12:52:50;11.70;99.90
55173;DHT22;41061;52.822;6.860;2023-10-31T12:55:18;11.80;99.90
55173;DHT22;41061;52.822;6.860;2023-10-31T12:57:44;11.90;99.90
55173;DHT22;41061;52.822;6.860;2023-10-31T13:00:12;12.00;99.90
55173;DHT22;41061;52.822;6.860;2023-10-31T13:02:42;12.00;99.90
55173;DHT22;41061;52.822;6.860;2023-10-31T13:05:15;11.90;99.90
55173;DHT22;41061;52.822;6.860;2023-10-31T13:07:51;12.00;99.90
55173;DHT22;41061;52.822;6.860;2023-10-31T13:10:19;11.90;99.90
55173;DHT22;41061;52.822;6.860;2023-10-31T13:12:46;11.90;99.90
55173;DHT22;41061;52.822;6.860;2023-10-31T13:15:13;11.90;99.90
55173;DHT22;41061;52.822;6.860;2023-10-31T13:17:40;11.90;99.90
55173;DHT22;41061;52.822;6.860;2023-10-31T13:20:12;11.90;99.90
55173;DHT22;41061;52.822;6.860;2023-10-31T13:22:39;12.00;99.90
55173;DHT22;41061;52.822;6.860;2023-10-31T13:25:07;11.90;99.90
55173;DHT22;41061;52.822;6.860;2023-10-31T13:27:35;12.00;99.90
55173;DHT22;41061;52.822;6.860;2023-10-31T13:30:04;12.00;99.90
55173;DHT22;41061;52.822;6.860;2023-10-31T13:32:31;12.00;99.90
55173;DHT22;41061;52.822;6.860;2023-10-31T13:34:57;11.90;99.90
55173;DHT22;41061;52.822;6.860;2023-10-31T13:37:22;11.90;99.90
55173;DHT22;41061;52.822;6.860;2023-10-31T13:39:48;11.90;99.90
55173;DHT22;41061;52.822;6.860;2023-10-31T13:42:14;11.80;99.90
55173;DHT22;41061;52.822;6.860;2023-10-31T13:44:40;11.80;99.90
55173;DHT22;41061;52.822;6.860;2023-10-31T13:47:06;11.80;99.90
55173;DHT22;41061;52.822;6.860;2023-10-31T13:49:32;11.90;99.90
55173;DHT22;41061;52.822;6.860;2023-10-31T13:51:58;11.80;99.90
55173;DHT22;41061;52.822;6.860;2023-10-31T13:54:23;11.80;99.90
55173;DHT22;41061;52.822;6.860;2023-10-31T13:56:49;11.80;99.90
55173;DHT22;41061;52.822;6.860;2023-10-31T13:59:15;11.80;99.90
55173;DHT22;41061;52.822;6.860;2023-10-31T14:01:41;11.90;99.90
55173;DHT22;41061;52.822;6.860;2023-10-31T14:04:08;11.90;99.90
55173;DHT22;41061;52.822;6.860;2023-10-31T14:06:34;11.90;99.90
55173;DHT22;41061;52.822;6.860;2023-10-31T14:09:00;11.80;99.90
55173;DHT22;41061;52.822;6.860;2023-10-31T14:11:30;11.80;99.90
55173;DHT22;41061;52.822;6.860;2023-10-31T14:13:56;11.90;99.90
55173;DHT22;41061;52.822;6.860;2023-10-31T14:16:31;11.90;99.90
55173;DHT22;41061;52.822;6.860;2023-10-31T14:18:56;11.90;99.90
55173;DHT22;41061;52.822;6.860;2023-10-31T14:21:22;11.90;99.90
55173;DHT22;41061;52.822;6.860;2023-10-31T14:23:48;11.80;99.90
55173;DHT22;41061;52.822;6.860;2023-10-31T14:26:20;11.80;99.90
55173;DHT22;41061;52.822;6.860;2023-10-31T14:28:47;11.70;99.90
55173;DHT22;41061;52.822;6.860;2023-10-31T14:31:13;11.70;99.90
55173;DHT22;41061;52.822;6.860;2023-10-31T14:33:39;11.70;99.90
55173;DHT22;41061;52.822;6.860;2023-10-31T14:36:05;11.70;99.90
55173;DHT22;41061;52.822;6.860;2023-10-31T14:38:31;11.60;99.90
55173;DHT22;41061;52.822;6.860;2023-10-31T14:40:57;11.60;99.90
55173;DHT22;41061;52.822;6.860;2023-10-31T14:43:22;11.60;99.90
55173;DHT22;41061;52.822;6.860;2023-10-31T14:45:48;11.60;99.90
55173;DHT22;41061;52.822;6.860;2023-10-31T14:48:14;11.60;99.90
55173;DHT22;41061;52.822;6.860;2023-10-31T14:50:40;11.60;99.90
55173;DHT22;41061;52.822;6.860;2023-10-31T14:53:06;11.60;99.90
55173;DHT22;41061;52.822;6.860;2023-10-31T14:55:32;11.60;99.90
55173;DHT22;41061;52.822;6.860;2023-10-31T14:57:58;11.50;99.90
55173;DHT22;41061;52.822;6.860;2023-10-31T15:00:24;11.60;99.90
55173;DHT22;41061;52.822;6.860;2023-10-31T15:02:50;11.60;99.90
55173;DHT22;41061;52.822;6.860;2023-10-31T15:05:16;11.60;99.90
55173;DHT22;41061;52.822;6.860;2023-10-31T15:07:41;11.50;99.90
55173;DHT22;41061;52.822;6.860;2023-10-31T15:10:08;11.50;99.90
55173;DHT22;41061;52.822;6.860;2023-10-31T15:12:33;11.50;99.90
55173;DHT22;41061;52.822;6.860;2023-10-31T15:14:59;11.50;99.90
55173;DHT22;41061;52.822;6.860;2023-10-31T15:17:25;11.50;99.90
55173;DHT22;41061;52.822;6.860;2023-10-31T15:19:50;11.50;99.90
55173;DHT22;41061;52.822;6.860;2023-10-31T15:22:16;11.50;99.90
55173;DHT22;41061;52.822;6.860;2023-10-31T15:24:41;11.40;99.90
55173;DHT22;41061;52.822;6.860;2023-10-31T15:27:08;11.40;99.90
55173;DHT22;41061;52.822;6.860;2023-10-31T15:29:34;11.30;99.90
55173;DHT22;41061;52.822;6.860;2023-10-31T15:32:00;11.30;99.90
55173;DHT22;41061;52.822;6.860;2023-10-31T15:34:26;11.20;99.90
55173;DHT22;41061;52.822;6.860;2023-10-31T15:36:51;11.20;99.90
55173;DHT22;41061;52.822;6.860;2023-10-31T15:39:17;11.20;99.90
55173;DHT22;41061;52.822;6.860;2023-10-31T15:41:43;11.20;99.90
55173;DHT22;41061;52.822;6.860;2023-10-31T15:44:09;11.10;99.90
55173;DHT22;41061;52.822;6.860;2023-10-31T15:46:34;11.10;99.90
55173;DHT22;41061;52.822;6.860;2023-10-31T15:49:02;11.10;99.90
55173;DHT22;41061;52.822;6.860;2023-10-31T15:51:28;11.00;99.90
55173;DHT22;41061;52.822;6.860;2023-10-31T15:53:54;11.00;99.90
55173;DHT22;41061;52.822;6.860;2023-10-31T15:56:20;10.90;99.90
55173;DHT22;41061;52.822;6.860;2023-10-31T15:58:46;10.90;99.90
55173;DHT22;41061;52.822;6.860;2023-10-31T16:01:12;10.90;99.90
55173;DHT22;41061;52.822;6.860;2023-10-31T16:03:38;10.90;99.90
55173;DHT22;41061;52.822;6.860;2023-10-31T16:06:04;10.80;99.90
55173;DHT22;41061;52.822;6.860;2023-10-31T16:08:30;10.90;99.90
55173;DHT22;41061;52.822;6.860;2023-10-31T16:10:56;10.80;99.90
55173;DHT22;41061;52.822;6.860;2023-10-31T16:13:22;10.80;99.90
55173;DHT22;41061;52.822;6.860;2023-10-31T16:15:47;10.70;99.90
55173;DHT22;41061;52.822;6.860;2023-10-31T16:18:15;10.70;99.90
55173;DHT22;41061;52.822;6.860;2023-10-31T16:20:41;10.60;99.90
55173;DHT22;41061;52.822;6.860;2023-10-31T16:23:08;10.60;99.90
55173;DHT22;41061;52.822;6.860;2023-10-31T16:25:34;10.50;99.90
55173;DHT22;41061;52.822;6.860;2023-10-31T16:28:00;10.40;99.90
55173;DHT22;41061;52.822;6.860;2023-10-31T16:30:25;10.30;99.90
55173;DHT22;41061;52.822;6.860;2023-10-31T16:32:51;10.20;99.90
55173;DHT22;41061;52.822;6.860;2023-10-31T16:35:17;10.20;99.90
55173;DHT22;41061;52.822;6.860;2023-10-31T16:37:42;10.20;99.90
55173;DHT22;41061;52.822;6.860;2023-10-31T16:40:08;10.10;99.90
55173;DHT22;41061;52.822;6.860;2023-10-31T16:42:34;10.10;99.90
55173;DHT22;41061;52.822;6.860;2023-10-31T16:45:00;10.10;99.90
55173;DHT22;41061;52.822;6.860;2023-10-31T16:47:26;10.00;99.90